CheckWX is a tool to help pilots better visualize weather data.  It is not intended as a substitute for an official pre-flight weather briefing.

10:51:43 UTC

LHBP METAR
Budapest Ferenc Liszt International Airport
Budapest, Hungary
Current

22 mins ago

LHBP 181030Z 06011KT 010V110 CAVOK 18/06 Q1027 NOSIG
Observed
Apr-18 @ 10:30 UTC
Wind
  • 060° at 11 KTS
Visibility
10,000+ meters
Flight Rules
VFR
Cloud Levels
  • Clear skies
Temperature
18°C / 64°F
Dewpoint
C / 43°F
Humidity
46%
Altimeter
30.32" Hg
Pressure
1026.92 hPa
Previous

52 mins ago

LHBP 181000Z 09010KT 050V130 CAVOK 19/07 Q1028 NOSIG
Observed
Apr-18 @ 10:00 UTC
Wind
  • 090° at 10 KTS
Visibility
10,000+ meters
Flight Rules
VFR
Cloud Levels
  • Clear skies
Temperature
19°C / 66°F
Dewpoint
C / 45°F
Humidity
46%
Altimeter
30.35" Hg
Pressure
1027.92 hPa
Previous

1 hour ago

LHBP 180930Z 08011KT 040V110 9999 SCT048 17/06 Q1028 NOSIG
Observed
Apr-18 @ 09:30 UTC
Wind
  • 080° at 11 KTS
Visibility
10,000+ meters
Flight Rules
VFR
Cloud Levels
  • Scattered at 4,800' AGL
Temperature
17°C / 63°F
Dewpoint
C / 43°F
Humidity
49%
Altimeter
30.35" Hg
Pressure
1027.92 hPa